Linden, Michigan
Current Conditions -  °F | °C
As of 5:53 PM on Wednesday 26 Nov 2014 (Local Time) from KFNT Reporting Station
Overcast Overcast  
Wind Chill: 26°   Ceiling: 3300
Heat Index: 32°   Visibility: 10mi
Dew Point: 23°   Wind: 6mph
Humidity: 69%   Direction: 350°N
Pressure: 30.11"   Gusts: NA
Location:  42.81°N, 83.78°W
Report Text: KFNT 262253Z 35005KT 10SM BKN033 OVC040 00/M05 A3011 RMK AO2 SLP207 T00001050
Loading
Personal Weather Stations






























Interactive Weather Map New forecast layout! Learn more

10-Day Weather Forecast

Advertisements
Track Severe Weather on mobile